Norsul Tubarao — 3FJV6 — position and weather

sailwx.info

Track history (hours):
 
Tides and Currents Weather Stations Pressure Air Temp Water Temp Dewpoint Dewpoint Depression Visibility Wind Speed Wind Dir Waves Ship Positions

Norsul Tubarao

Last reported at 2017-Jul-18 21:01 UTC. Time now 2017-Jul-25 18:49 UTC.
Position N 04°50' E 099°04'.

Length 175 m; draft 7.3 m.

Type: Cargo ship. MMSI: 373182000.

Date/timePositionNaut miles runAvg speedWind from/ knotsBaromVisibWave heightAir tempDewpointWater temp
2017-Jul-18 21:01N 04°50' E 099°04'110.2
2017-Jul-18 20:57N 04°50' E 099°05'510.4
2017-Jul-18 20:30N 04°47' E 099°08'510.5
2017-Jul-18 20:00N 04°43' E 099°12'1110.7
2017-Jul-18 19:01N 04°36' E 099°20'110.7
2017-Jul-18 18:56N 04°35' E 099°21'32010.3
2017-Jul-17 11:49N 01°13' E 103°29'310.7
2017-Jul-17 11:30N 01°13' E 103°32'510.7
2017-Jul-17 11:00N 01°11' E 103°37'612.9
2017-Jul-17 10:30N 01°09' E 103°43'713.1
2017-Jul-17 10:00N 01°11' E 103°49'611.7
2017-Jul-17 09:30N 01°13' E 103°54'611.1
2017-Jul-17 09:00N 01°16' E 103°60'4 7.6
2017-Jul-17 08:29N 01°18' E 104°03'1 0.2
2017-Jul-17 05:05N 01°18' E 104°03'0 0.0
2017-Jul-17 04:41N 01°18' E 104°03'0 0.3
2017-Jul-17 04:29N 01°18' E 104°03'0 0.1
2017-Jul-17 03:53N 01°18' E 104°03'0 0.0
2017-Jul-17 03:26N 01°18' E 104°03'0 0.1
2017-Jul-17 02:38N 01°18' E 104°03'0 0.0
2017-Jul-17 02:17N 01°18' E 104°03'0 0.0
2017-Jul-17 01:59N 01°18' E 104°03'0 0.0
2017-Jul-17 01:29N 01°18' E 104°03'0 0.0
2017-Jul-17 00:56N 01°18' E 104°03'0 0.0
2017-Jul-16 23:44N 01°18' E 104°03'0 0.0
2017-Jul-16 23:17N 01°18' E 104°03'0 0.0
2017-Jul-16 22:50N 01°18' E 104°03'0 0.0
2017-Jul-16 22:29N 01°18' E 104°03'0 0.0
2017-Jul-16 20:23N 01°18' E 104°03'0 0.0
2017-Jul-16 19:53N 01°18' E 104°03'0 0.1
2017-Jul-16 19:23N 01°18' E 104°03'0 0.0
2017-Jul-16 11:47N 01°18' E 104°03'0 0.0
2017-Jul-16 08:50N 01°18' E 104°03'0 0.1
2017-Jul-16 08:17N 01°18' E 104°03'0 0.0
2017-Jul-16 07:56N 01°18' E 104°03'0 0.0
2017-Jul-16 04:02N 01°18' E 104°03'0 0.0
2017-Jul-16 03:53N 01°18' E 104°03'0 0.0
2017-Jul-16 03:20N 01°18' E 104°03'0 0.2
2017-Jul-16 03:00N 01°18' E 104°03'1 2.5
2017-Jul-16 02:30N 01°19' E 104°04'4 7.7
2017-Jul-16 01:56N 01°17' E 104°08'3 5.8
2017-Jul-16 01:27N 01°18' E 104°11'3 6.0
2017-Jul-16 01:00N 01°18' E 104°14'  
Track history (hours):
 
Tides and Currents Weather Stations Pressure Air Temp Water Temp Dewpoint Dewpoint Depression Visibility Wind Speed Wind Dir Waves Ship Positions

Norsul Tubarao

Last reported at 2017-Jul-18 21:01 UTC. Time now 2017-Jul-25 18:49 UTC.
Position N 04°50' E 099°04'.

Length 175 m; draft 7.3 m.

Type: Cargo ship. MMSI: 373182000.

Date/timePositionNaut miles runAvg speedWind from/ knotsBaromVisibWave heightAir tempDewpointWater temp
2017-Jul-18 21:01N 04°50' E 099°04'110.2
2017-Jul-18 20:57N 04°50' E 099°05'510.4
2017-Jul-18 20:30N 04°47' E 099°08'510.5
2017-Jul-18 20:00N 04°43' E 099°12'1110.7
2017-Jul-18 19:01N 04°36' E 099°20'110.7
2017-Jul-18 18:56N 04°35' E 099°21'32010.3
2017-Jul-17 11:49N 01°13' E 103°29'310.7
2017-Jul-17 11:30N 01°13' E 103°32'510.7
2017-Jul-17 11:00N 01°11' E 103°37'612.9
2017-Jul-17 10:30N 01°09' E 103°43'713.1
2017-Jul-17 10:00N 01°11' E 103°49'611.7
2017-Jul-17 09:30N 01°13' E 103°54'611.1
2017-Jul-17 09:00N 01°16' E 103°60'4 7.6
2017-Jul-17 08:29N 01°18' E 104°03'1 0.2
2017-Jul-17 05:05N 01°18' E 104°03'0 0.0
2017-Jul-17 04:41N 01°18' E 104°03'0 0.3
2017-Jul-17 04:29N 01°18' E 104°03'0 0.1
2017-Jul-17 03:53N 01°18' E 104°03'0 0.0
2017-Jul-17 03:26N 01°18' E 104°03'0 0.1
2017-Jul-17 02:38N 01°18' E 104°03'0 0.0
2017-Jul-17 02:17N 01°18' E 104°03'0 0.0
2017-Jul-17 01:59N 01°18' E 104°03'0 0.0
2017-Jul-17 01:29N 01°18' E 104°03'0 0.0
2017-Jul-17 00:56N 01°18' E 104°03'0 0.0
2017-Jul-16 23:44N 01°18' E 104°03'0 0.0
2017-Jul-16 23:17N 01°18' E 104°03'0 0.0
2017-Jul-16 22:50N 01°18' E 104°03'0 0.0
2017-Jul-16 22:29N 01°18' E 104°03'0 0.0
2017-Jul-16 20:23N 01°18' E 104°03'0 0.0
2017-Jul-16 19:53N 01°18' E 104°03'0 0.1
2017-Jul-16 19:23N 01°18' E 104°03'0 0.0
2017-Jul-16 11:47N 01°18' E 104°03'0 0.0
2017-Jul-16 08:50N 01°18' E 104°03'0 0.1
2017-Jul-16 08:17N 01°18' E 104°03'0 0.0
2017-Jul-16 07:56N 01°18' E 104°03'0 0.0
2017-Jul-16 04:02N 01°18' E 104°03'0 0.0
2017-Jul-16 03:53N 01°18' E 104°03'0 0.0
2017-Jul-16 03:20N 01°18' E 104°03'0 0.2
2017-Jul-16 03:00N 01°18' E 104°03'1 2.5
2017-Jul-16 02:30N 01°19' E 104°04'4 7.7
2017-Jul-16 01:56N 01°17' E 104°08'3 5.8
2017-Jul-16 01:27N 01°18' E 104°11'3 6.0
2017-Jul-16 01:00N 01°18' E 104°14'  

Dump ship's entire track history